sensor_id;sensor_type;location;lat;lon;timestamp;temperature;humidity
61412;DHT22;47278;49.732;7.690;2023-03-01T00:01:12;-2.00;99.90
61412;DHT22;47278;49.732;7.690;2023-03-01T00:03:38;-1.90;99.90
61412;DHT22;47278;49.732;7.690;2023-03-01T00:06:04;-2.00;99.90
61412;DHT22;47278;49.732;7.690;2023-03-01T00:08:30;-2.10;99.90
61412;DHT22;47278;49.732;7.690;2023-03-01T00:11:00;-1.50;99.90
61412;DHT22;47278;49.732;7.690;2023-03-01T00:13:26;-2.00;99.90
61412;DHT22;47278;49.732;7.690;2023-03-01T00:15:52;-2.10;99.90
61412;DHT22;47278;49.732;7.690;2023-03-01T00:18:17;-2.30;99.90
61412;DHT22;47278;49.732;7.690;2023-03-01T00:20:49;-3.00;99.90
61412;DHT22;47278;49.732;7.690;2023-03-01T00:23:14;-2.20;99.90
61412;DHT22;47278;49.732;7.690;2023-03-01T00:25:43;-2.30;99.90
61412;DHT22;47278;49.732;7.690;2023-03-01T00:28:08;-2.30;99.90
61412;DHT22;47278;49.732;7.690;2023-03-01T00:30:34;-2.30;99.90
61412;DHT22;47278;49.732;7.690;2023-03-01T00:32:59;-1.90;99.90
61412;DHT22;47278;49.732;7.690;2023-03-01T00:35:25;-2.20;99.90
61412;DHT22;47278;49.732;7.690;2023-03-01T00:37:50;-2.10;99.90
61412;DHT22;47278;49.732;7.690;2023-03-01T00:40:33;-2.00;99.90
61412;DHT22;47278;49.732;7.690;2023-03-01T00:42:59;-2.00;99.90
61412;DHT22;47278;49.732;7.690;2023-03-01T00:45:24;-2.10;99.90
61412;DHT22;47278;49.732;7.690;2023-03-01T00:47:50;-1.90;99.90
61412;DHT22;47278;49.732;7.690;2023-03-01T00:50:16;-2.00;99.90
61412;DHT22;47278;49.732;7.690;2023-03-01T00:52:41;-1.30;99.90
61412;DHT22;47278;49.732;7.690;2023-03-01T00:55:07;-2.10;99.90
61412;DHT22;47278;49.732;7.690;2023-03-01T00:57:33;-2.30;99.90
61412;DHT22;47278;49.732;7.690;2023-03-01T00:59:59;-2.30;99.90
61412;DHT22;47278;49.732;7.690;2023-03-01T01:02:24;-2.20;99.90
61412;DHT22;47278;49.732;7.690;2023-03-01T01:04:50;-2.20;99.90
61412;DHT22;47278;49.732;7.690;2023-03-01T01:07:15;-2.20;99.90
61412;DHT22;47278;49.732;7.690;2023-03-01T01:09:41;-2.20;99.90
61412;DHT22;47278;49.732;7.690;2023-03-01T01:12:07;-2.20;99.90
61412;DHT22;47278;49.732;7.690;2023-03-01T01:14:32;-2.20;99.90
61412;DHT22;47278;49.732;7.690;2023-03-01T01:16:58;-2.20;99.90
61412;DHT22;47278;49.732;7.690;2023-03-01T01:19:24;-2.30;99.90
61412;DHT22;47278;49.732;7.690;2023-03-01T01:21:49;-2.20;99.90
61412;DHT22;47278;49.732;7.690;2023-03-01T01:24:15;-2.30;99.90
61412;DHT22;47278;49.732;7.690;2023-03-01T01:26:41;-2.10;99.90
61412;DHT22;47278;49.732;7.690;2023-03-01T01:29:07;-2.10;99.90
61412;DHT22;47278;49.732;7.690;2023-03-01T01:31:33;-2.10;99.90
61412;DHT22;47278;49.732;7.690;2023-03-01T01:33:59;-2.20;99.90
61412;DHT22;47278;49.732;7.690;2023-03-01T01:36:25;-2.20;99.90
61412;DHT22;47278;49.732;7.690;2023-03-01T01:38:51;-2.20;99.90
61412;DHT22;47278;49.732;7.690;2023-03-01T01:41:17;-0.50;99.90
61412;DHT22;47278;49.732;7.690;2023-03-01T01:43:44;-2.10;99.90
61412;DHT22;47278;49.732;7.690;2023-03-01T01:46:14;-2.20;99.90
61412;DHT22;47278;49.732;7.690;2023-03-01T01:48:45;-2.20;99.90
61412;DHT22;47278;49.732;7.690;2023-03-01T01:51:31;-2.20;99.90
61412;DHT22;47278;49.732;7.690;2023-03-01T01:54:06;-2.30;99.90
61412;DHT22;47278;49.732;7.690;2023-03-01T01:56:33;-2.30;99.90
61412;DHT22;47278;49.732;7.690;2023-03-01T01:58:58;-2.30;99.90
61412;DHT22;47278;49.732;7.690;2023-03-01T02:01:24;-2.40;99.90
61412;DHT22;47278;49.732;7.690;2023-03-01T02:03:50;-2.30;99.90
61412;DHT22;47278;49.732;7.690;2023-03-01T02:06:29;-2.30;99.90
61412;DHT22;47278;49.732;7.690;2023-03-01T02:08:59;-2.40;99.90
61412;DHT22;47278;49.732;7.690;2023-03-01T02:11:25;-2.40;99.90
61412;DHT22;47278;49.732;7.690;2023-03-01T02:13:52;-2.40;99.90
61412;DHT22;47278;49.732;7.690;2023-03-01T02:16:19;-0.40;99.90
61412;DHT22;47278;49.732;7.690;2023-03-01T02:18:45;-2.20;99.90
61412;DHT22;47278;49.732;7.690;2023-03-01T02:23:36;-2.50;99.90
61412;DHT22;47278;49.732;7.690;2023-03-01T02:26:15;-2.50;99.90
61412;DHT22;47278;49.732;7.690;2023-03-01T02:28:42;-2.30;99.90
61412;DHT22;47278;49.732;7.690;2023-03-01T02:31:09;-2.40;99.90
61412;DHT22;47278;49.732;7.690;2023-03-01T02:33:53;-1.90;99.90
61412;DHT22;47278;49.732;7.690;2023-03-01T02:36:23;-2.40;99.90
61412;DHT22;47278;49.732;7.690;2023-03-01T02:38:50;-2.40;99.90
61412;DHT22;47278;49.732;7.690;2023-03-01T02:41:17;-2.50;99.90
61412;DHT22;47278;49.732;7.690;2023-03-01T02:43:43;-2.50;99.90
61412;DHT22;47278;49.732;7.690;2023-03-01T02:46:13;-2.50;99.90
61412;DHT22;47278;49.732;7.690;2023-03-01T02:48:44;-2.50;99.90
61412;DHT22;47278;49.732;7.690;2023-03-01T02:56:16;-2.20;99.90
61412;DHT22;47278;49.732;7.690;2023-03-01T02:58:41;-2.20;99.90
61412;DHT22;47278;49.732;7.690;2023-03-01T03:01:10;-2.20;99.90
61412;DHT22;47278;49.732;7.690;2023-03-01T03:03:36;-2.30;99.90
61412;DHT22;47278;49.732;7.690;2023-03-01T03:06:01;-2.30;99.90
61412;DHT22;47278;49.732;7.690;2023-03-01T03:08:27;-2.20;99.90
61412;DHT22;47278;49.732;7.690;2023-03-01T03:10:52;-2.20;99.90
61412;DHT22;47278;49.732;7.690;2023-03-01T03:13:18;-2.20;99.90
61412;DHT22;47278;49.732;7.690;2023-03-01T03:15:44;-2.30;99.90
61412;DHT22;47278;49.732;7.690;2023-03-01T03:18:11;-2.20;99.90
61412;DHT22;47278;49.732;7.690;2023-03-01T03:20:38;-2.20;99.90
61412;DHT22;47278;49.732;7.690;2023-03-01T03:23:04;-2.20;99.90
61412;DHT22;47278;49.732;7.690;2023-03-01T03:25:30;-2.20;99.90
61412;DHT22;47278;49.732;7.690;2023-03-01T03:27:56;-2.20;99.90
61412;DHT22;47278;49.732;7.690;2023-03-01T03:30:22;-2.10;99.90
61412;DHT22;47278;49.732;7.690;2023-03-01T03:32:48;-2.10;99.90
61412;DHT22;47278;49.732;7.690;2023-03-01T03:37:45;-2.00;99.90
61412;DHT22;47278;49.732;7.690;2023-03-01T03:40:33;-2.20;99.90
61412;DHT22;47278;49.732;7.690;2023-03-01T03:42:59;-2.20;99.90
61412;DHT22;47278;49.732;7.690;2023-03-01T03:45:25;-2.20;99.90
61412;DHT22;47278;49.732;7.690;2023-03-01T03:47:51;-1.90;99.90
61412;DHT22;47278;49.732;7.690;2023-03-01T03:50:16;-2.00;99.90
61412;DHT22;47278;49.732;7.690;2023-03-01T03:52:42;-1.90;99.90
61412;DHT22;47278;49.732;7.690;2023-03-01T03:55:09;-1.90;99.90
61412;DHT22;47278;49.732;7.690;2023-03-01T03:57:36;-1.90;99.90
61412;DHT22;47278;49.732;7.690;2023-03-01T04:00:02;-1.90;99.90
61412;DHT22;47278;49.732;7.690;2023-03-01T04:02:30;-1.80;99.90
61412;DHT22;47278;49.732;7.690;2023-03-01T04:04:56;-1.70;99.90
61412;DHT22;47278;49.732;7.690;2023-03-01T04:07:21;-1.70;99.90
61412;DHT22;47278;49.732;7.690;2023-03-01T04:09:47;-1.80;99.90
61412;DHT22;47278;49.732;7.690;2023-03-01T04:12:12;0.20;99.90
61412;DHT22;47278;49.732;7.690;2023-03-01T04:14:38;-1.70;99.90
61412;DHT22;47278;49.732;7.690;2023-03-01T04:17:03;-1.80;99.90
61412;DHT22;47278;49.732;7.690;2023-03-01T04:19:33;-1.70;99.90
61412;DHT22;47278;49.732;7.690;2023-03-01T04:22:02;-1.70;99.90
61412;DHT22;47278;49.732;7.690;2023-03-01T04:24:33;-1.60;99.90
61412;DHT22;47278;49.732;7.690;2023-03-01T04:26:58;-1.60;99.90
61412;DHT22;47278;49.732;7.690;2023-03-01T04:29:24;-1.50;99.90
61412;DHT22;47278;49.732;7.690;2023-03-01T04:31:49;-1.20;99.90
61412;DHT22;47278;49.732;7.690;2023-03-01T04:34:15;-1.40;99.90
61412;DHT22;47278;49.732;7.690;2023-03-01T04:36:40;-1.30;99.90
61412;DHT22;47278;49.732;7.690;2023-03-01T04:39:06;-1.30;99.90
61412;DHT22;47278;49.732;7.690;2023-03-01T04:41:37;-0.80;99.90
61412;DHT22;47278;49.732;7.690;2023-03-01T04:44:04;-0.90;99.90
61412;DHT22;47278;49.732;7.690;2023-03-01T04:46:29;-1.10;99.90
61412;DHT22;47278;49.732;7.690;2023-03-01T04:48:55;-1.10;99.90
61412;DHT22;47278;49.732;7.690;2023-03-01T04:51:20;-0.80;99.90
61412;DHT22;47278;49.732;7.690;2023-03-01T04:53:46;-1.10;99.90
61412;DHT22;47278;49.732;7.690;2023-03-01T04:56:12;-1.20;99.90
61412;DHT22;47278;49.732;7.690;2023-03-01T04:58:43;-1.10;99.90
61412;DHT22;47278;49.732;7.690;2023-03-01T05:01:12;-1.10;99.90
61412;DHT22;47278;49.732;7.690;2023-03-01T05:03:42;-1.10;99.90
61412;DHT22;47278;49.732;7.690;2023-03-01T05:06:08;-1.00;99.90
61412;DHT22;47278;49.732;7.690;2023-03-01T05:08:33;-1.00;99.90
61412;DHT22;47278;49.732;7.690;2023-03-01T05:11:02;-0.50;99.90
61412;DHT22;47278;49.732;7.690;2023-03-01T05:13:27;-1.00;99.90
61412;DHT22;47278;49.732;7.690;2023-03-01T05:15:55;-0.90;99.90
61412;DHT22;47278;49.732;7.690;2023-03-01T05:18:21;-1.10;99.90
61412;DHT22;47278;49.732;7.690;2023-03-01T05:20:46;-1.10;99.90
61412;DHT22;47278;49.732;7.690;2023-03-01T05:23:12;-1.10;99.90
61412;DHT22;47278;49.732;7.690;2023-03-01T05:25:38;-1.00;99.90
61412;DHT22;47278;49.732;7.690;2023-03-01T05:28:06;-1.10;99.90
61412;DHT22;47278;49.732;7.690;2023-03-01T05:30:32;-1.30;99.90
61412;DHT22;47278;49.732;7.690;2023-03-01T05:32:58;-1.30;99.90
61412;DHT22;47278;49.732;7.690;2023-03-01T05:35:23;-1.20;99.90
61412;DHT22;47278;49.732;7.690;2023-03-01T05:37:49;-1.00;99.90
61412;DHT22;47278;49.732;7.690;2023-03-01T05:40:16;-0.70;99.90
61412;DHT22;47278;49.732;7.690;2023-03-01T05:42:43;-0.90;99.90
61412;DHT22;47278;49.732;7.690;2023-03-01T05:45:09;-0.90;99.90
61412;DHT22;47278;49.732;7.690;2023-03-01T05:47:35;-0.90;99.90
61412;DHT22;47278;49.732;7.690;2023-03-01T05:50:01;-0.90;99.90
61412;DHT22;47278;49.732;7.690;2023-03-01T05:52:26;-1.00;99.90
61412;DHT22;47278;49.732;7.690;2023-03-01T05:54:52;-1.00;99.90
61412;DHT22;47278;49.732;7.690;2023-03-01T05:57:17;-1.10;99.90
61412;DHT22;47278;49.732;7.690;2023-03-01T05:59:43;-1.00;99.90
61412;DHT22;47278;49.732;7.690;2023-03-01T06:02:08;-1.00;99.90
61412;DHT22;47278;49.732;7.690;2023-03-01T06:04:34;-1.10;99.90
61412;DHT22;47278;49.732;7.690;2023-03-01T06:07:00;-1.20;99.90
61412;DHT22;47278;49.732;7.690;2023-03-01T06:09:25;-1.30;99.90
61412;DHT22;47278;49.732;7.690;2023-03-01T06:11:51;-1.40;99.90
61412;DHT22;47278;49.732;7.690;2023-03-01T06:14:16;-1.50;99.90
61412;DHT22;47278;49.732;7.690;2023-03-01T06:16:42;-1.50;99.90
61412;DHT22;47278;49.732;7.690;2023-03-01T06:19:08;-1.50;99.90
61412;DHT22;47278;49.732;7.690;2023-03-01T06:21:33;-1.40;99.90
61412;DHT22;47278;49.732;7.690;2023-03-01T06:23:59;-1.20;99.90
61412;DHT22;47278;49.732;7.690;2023-03-01T06:26:24;-1.30;99.90
61412;DHT22;47278;49.732;7.690;2023-03-01T06:28:50;-1.30;99.90
61412;DHT22;47278;49.732;7.690;2023-03-01T06:31:15;-1.20;99.90
61412;DHT22;47278;49.732;7.690;2023-03-01T06:33:41;-1.20;99.90
61412;DHT22;47278;49.732;7.690;2023-03-01T06:36:07;-1.20;99.90
61412;DHT22;47278;49.732;7.690;2023-03-01T06:38:32;-1.10;99.90
61412;DHT22;47278;49.732;7.690;2023-03-01T06:40:58;-1.20;99.90
61412;DHT22;47278;49.732;7.690;2023-03-01T06:43:24;-1.20;99.90
61412;DHT22;47278;49.732;7.690;2023-03-01T06:45:49;-1.20;99.90
61412;DHT22;47278;49.732;7.690;2023-03-01T06:48:15;-1.20;99.90
61412;DHT22;47278;49.732;7.690;2023-03-01T06:50:41;-1.30;99.90
61412;DHT22;47278;49.732;7.690;2023-03-01T06:53:07;-1.30;99.90
61412;DHT22;47278;49.732;7.690;2023-03-01T06:55:32;-1.30;99.90
61412;DHT22;47278;49.732;7.690;2023-03-01T06:57:58;-1.20;99.90
61412;DHT22;47278;49.732;7.690;2023-03-01T07:00:25;-1.20;99.90
61412;DHT22;47278;49.732;7.690;2023-03-01T07:02:51;-1.20;99.90
61412;DHT22;47278;49.732;7.690;2023-03-01T07:05:16;-1.10;99.90
61412;DHT22;47278;49.732;7.690;2023-03-01T07:07:42;-1.10;99.90
61412;DHT22;47278;49.732;7.690;2023-03-01T07:10:08;-1.10;99.90
61412;DHT22;47278;49.732;7.690;2023-03-01T07:12:33;-0.90;99.90
61412;DHT22;47278;49.732;7.690;2023-03-01T07:14:59;-1.00;99.90
61412;DHT22;47278;49.732;7.690;2023-03-01T07:17:24;-0.90;99.90
61412;DHT22;47278;49.732;7.690;2023-03-01T07:19:50;-0.80;99.90
61412;DHT22;47278;49.732;7.690;2023-03-01T07:22:15;-0.80;99.90
61412;DHT22;47278;49.732;7.690;2023-03-01T07:24:41;-0.70;99.90
61412;DHT22;47278;49.732;7.690;2023-03-01T07:27:07;-0.60;99.90
61412;DHT22;47278;49.732;7.690;2023-03-01T07:29:32;-0.50;99.90
61412;DHT22;47278;49.732;7.690;2023-03-01T07:31:58;-0.30;99.90
61412;DHT22;47278;49.732;7.690;2023-03-01T07:34:24;-0.10;99.90
61412;DHT22;47278;49.732;7.690;2023-03-01T07:36:49;0.10;99.90
61412;DHT22;47278;49.732;7.690;2023-03-01T07:39:15;0.30;99.90
61412;DHT22;47278;49.732;7.690;2023-03-01T07:41:40;0.40;99.90
61412;DHT22;47278;49.732;7.690;2023-03-01T07:44:06;0.60;99.90
61412;DHT22;47278;49.732;7.690;2023-03-01T07:46:31;0.80;99.90
61412;DHT22;47278;49.732;7.690;2023-03-01T07:48:57;0.90;99.90
61412;DHT22;47278;49.732;7.690;2023-03-01T07:51:23;1.10;99.90
61412;DHT22;47278;49.732;7.690;2023-03-01T07:53:49;1.20;99.90
61412;DHT22;47278;49.732;7.690;2023-03-01T07:56:15;1.30;99.90
61412;DHT22;47278;49.732;7.690;2023-03-01T07:58:43;1.40;99.90
61412;DHT22;47278;49.732;7.690;2023-03-01T08:01:10;1.40;99.90
61412;DHT22;47278;49.732;7.690;2023-03-01T08:03:36;1.60;99.90
61412;DHT22;47278;49.732;7.690;2023-03-01T08:06:03;1.60;99.90
61412;DHT22;47278;49.732;7.690;2023-03-01T08:08:29;1.80;99.90
61412;DHT22;47278;49.732;7.690;2023-03-01T08:10:59;1.80;99.90
61412;DHT22;47278;49.732;7.690;2023-03-01T08:13:25;1.90;99.90
61412;DHT22;47278;49.732;7.690;2023-03-01T08:15:51;2.00;99.90
61412;DHT22;47278;49.732;7.690;2023-03-01T08:18:17;2.00;99.90
61412;DHT22;47278;49.732;7.690;2023-03-01T08:20:42;2.20;99.90
61412;DHT22;47278;49.732;7.690;2023-03-01T08:23:08;2.20;99.90
61412;DHT22;47278;49.732;7.690;2023-03-01T08:25:33;2.30;99.90
61412;DHT22;47278;49.732;7.690;2023-03-01T08:27:59;2.40;99.90
61412;DHT22;47278;49.732;7.690;2023-03-01T08:30:24;2.50;99.90
61412;DHT22;47278;49.732;7.690;2023-03-01T08:32:50;2.50;99.90
61412;DHT22;47278;49.732;7.690;2023-03-01T08:35:16;2.60;99.90
61412;DHT22;47278;49.732;7.690;2023-03-01T08:37:42;2.70;99.90
61412;DHT22;47278;49.732;7.690;2023-03-01T08:40:07;2.80;99.90
61412;DHT22;47278;49.732;7.690;2023-03-01T08:42:38;2.90;99.90
61412;DHT22;47278;49.732;7.690;2023-03-01T08:45:03;1.70;99.90
61412;DHT22;47278;49.732;7.690;2023-03-01T08:47:29;3.00;99.90
61412;DHT22;47278;49.732;7.690;2023-03-01T08:49:55;3.10;99.90
61412;DHT22;47278;49.732;7.690;2023-03-01T08:52:20;3.30;99.90
61412;DHT22;47278;49.732;7.690;2023-03-01T08:54:49;6.30;99.90
61412;DHT22;47278;49.732;7.690;2023-03-01T08:57:15;3.50;99.90
61412;DHT22;47278;49.732;7.690;2023-03-01T08:59:41;3.60;99.90
61412;DHT22;47278;49.732;7.690;2023-03-01T09:02:11;3.70;99.90
61412;DHT22;47278;49.732;7.690;2023-03-01T09:04:36;3.80;99.90
61412;DHT22;47278;49.732;7.690;2023-03-01T09:07:02;3.90;99.90
61412;DHT22;47278;49.732;7.690;2023-03-01T09:09:28;4.10;99.90
61412;DHT22;47278;49.732;7.690;2023-03-01T09:11:53;4.20;99.90
61412;DHT22;47278;49.732;7.690;2023-03-01T09:14:19;4.20;99.90
61412;DHT22;47278;49.732;7.690;2023-03-01T09:16:44;4.30;99.90
61412;DHT22;47278;49.732;7.690;2023-03-01T09:19:10;4.50;99.90
61412;DHT22;47278;49.732;7.690;2023-03-01T09:21:36;4.60;99.90
61412;DHT22;47278;49.732;7.690;2023-03-01T09:24:02;4.40;99.90
61412;DHT22;47278;49.732;7.690;2023-03-01T09:26:28;4.70;99.90
61412;DHT22;47278;49.732;7.690;2023-03-01T09:28:54;4.90;99.90
61412;DHT22;47278;49.732;7.690;2023-03-01T09:31:21;4.60;99.90
61412;DHT22;47278;49.732;7.690;2023-03-01T09:33:47;4.90;99.90
61412;DHT22;47278;49.732;7.690;2023-03-01T09:36:14;4.90;99.90
61412;DHT22;47278;49.732;7.690;2023-03-01T09:38:40;4.90;99.90
61412;DHT22;47278;49.732;7.690;2023-03-01T09:44:29;5.10;99.90
61412;DHT22;47278;49.732;7.690;2023-03-01T09:46:47;5.30;99.90
61412;DHT22;47278;49.732;7.690;2023-03-01T09:49:19;5.40;99.90
61412;DHT22;47278;49.732;7.690;2023-03-01T09:54:35;5.40;99.90
61412;DHT22;47278;49.732;7.690;2023-03-01T09:57:11;5.60;99.90
61412;DHT22;47278;49.732;7.690;2023-03-01T09:59:45;5.50;99.90
61412;DHT22;47278;49.732;7.690;2023-03-01T10:02:35;5.80;99.90
61412;DHT22;47278;49.732;7.690;2023-03-01T10:05:05;6.00;99.90
61412;DHT22;47278;49.732;7.690;2023-03-01T10:07:54;6.10;99.90
61412;DHT22;47278;49.732;7.690;2023-03-01T10:10:31;6.00;99.90
61412;DHT22;47278;49.732;7.690;2023-03-01T10:12:58;6.00;99.90
61412;DHT22;47278;49.732;7.690;2023-03-01T10:15:29;6.10;99.90
61412;DHT22;47278;49.732;7.690;2023-03-01T10:17:58;6.30;99.90
61412;DHT22;47278;49.732;7.690;2023-03-01T10:20:28;6.40;99.90
61412;DHT22;47278;49.732;7.690;2023-03-01T10:22:55;6.10;99.90
61412;DHT22;47278;49.732;7.690;2023-03-01T10:25:57;6.50;99.90
61412;DHT22;47278;49.732;7.690;2023-03-01T10:30:58;6.70;99.90
61412;DHT22;47278;49.732;7.690;2023-03-01T10:33:26;6.60;99.90
61412;DHT22;47278;49.732;7.690;2023-03-01T10:35:52;6.50;99.90
61412;DHT22;47278;49.732;7.690;2023-03-01T10:38:18;6.50;99.90
61412;DHT22;47278;49.732;7.690;2023-03-01T10:40:59;6.70;99.90
61412;DHT22;47278;49.732;7.690;2023-03-01T10:43:27;6.50;99.90
61412;DHT22;47278;49.732;7.690;2023-03-01T10:45:56;6.80;99.90
61412;DHT22;47278;49.732;7.690;2023-03-01T10:48:22;6.80;99.90
61412;DHT22;47278;49.732;7.690;2023-03-01T10:53:25;7.30;99.90
61412;DHT22;47278;49.732;7.690;2023-03-01T10:58:23;7.10;99.90
61412;DHT22;47278;49.732;7.690;2023-03-01T11:03:31;7.30;99.90
61412;DHT22;47278;49.732;7.690;2023-03-01T11:11:14;8.00;99.90
61412;DHT22;47278;49.732;7.690;2023-03-01T11:16:13;8.20;99.90
61412;DHT22;47278;49.732;7.690;2023-03-01T11:18:39;8.00;99.90
61412;DHT22;47278;49.732;7.690;2023-03-01T11:21:04;7.80;99.90
61412;DHT22;47278;49.732;7.690;2023-03-01T11:23:30;8.10;99.90
61412;DHT22;47278;49.732;7.690;2023-03-01T11:26:04;8.00;99.90
61412;DHT22;47278;49.732;7.690;2023-03-01T11:28:30;8.30;99.90
61412;DHT22;47278;49.732;7.690;2023-03-01T11:38:36;7.90;99.90
61412;DHT22;47278;49.732;7.690;2023-03-01T11:43:44;8.70;99.90
61412;DHT22;47278;49.732;7.690;2023-03-01T11:48:47;8.60;99.90
61412;DHT22;47278;49.732;7.690;2023-03-01T11:51:25;8.10;99.90
61412;DHT22;47278;49.732;7.690;2023-03-01T11:56:27;8.60;99.90
61412;DHT22;47278;49.732;7.690;2023-03-01T11:59:02;8.70;99.90
61412;DHT22;47278;49.732;7.690;2023-03-01T12:06:50;9.20;99.90
61412;DHT22;47278;49.732;7.690;2023-03-01T12:16:45;9.40;99.90
61412;DHT22;47278;49.732;7.690;2023-03-01T12:29:38;9.50;99.90
61412;DHT22;47278;49.732;7.690;2023-03-01T12:34:55;10.00;99.90
61412;DHT22;47278;49.732;7.690;2023-03-01T12:50:17;10.10;99.90
61412;DHT22;47278;49.732;7.690;2023-03-01T12:52:45;10.30;99.90
61412;DHT22;47278;49.732;7.690;2023-03-01T12:58:01;10.00;99.90
61412;DHT22;47278;49.732;7.690;2023-03-01T13:05:44;10.40;99.90
61412;DHT22;47278;49.732;7.690;2023-03-01T13:08:19;10.40;99.90
61412;DHT22;47278;49.732;7.690;2023-03-01T13:10:47;10.30;99.90
61412;DHT22;47278;49.732;7.690;2023-03-01T13:13:23;10.30;99.90
61412;DHT22;47278;49.732;7.690;2023-03-01T13:15:49;10.20;99.90
61412;DHT22;47278;49.732;7.690;2023-03-01T13:25:52;10.40;99.90
61412;DHT22;47278;49.732;7.690;2023-03-01T13:30:53;10.20;99.90
61412;DHT22;47278;49.732;7.690;2023-03-01T13:35:53;10.30;99.90
61412;DHT22;47278;49.732;7.690;2023-03-01T13:38:38;10.70;99.90
61412;DHT22;47278;49.732;7.690;2023-03-01T13:41:05;10.50;99.90
61412;DHT22;47278;49.732;7.690;2023-03-01T13:43:32;10.60;99.90
61412;DHT22;47278;49.732;7.690;2023-03-01T13:45:59;10.50;99.90
61412;DHT22;47278;49.732;7.690;2023-03-01T13:48:26;10.70;99.90
61412;DHT22;47278;49.732;7.690;2023-03-01T13:50:54;10.80;99.90
61412;DHT22;47278;49.732;7.690;2023-03-01T13:53:22;10.70;99.90
61412;DHT22;47278;49.732;7.690;2023-03-01T13:55:50;11.10;99.90
61412;DHT22;47278;49.732;7.690;2023-03-01T14:00:55;11.00;99.90
61412;DHT22;47278;49.732;7.690;2023-03-01T14:03:21;11.10;99.90
61412;DHT22;47278;49.732;7.690;2023-03-01T14:08:25;10.80;99.90
61412;DHT22;47278;49.732;7.690;2023-03-01T14:10:58;11.10;99.90
61412;DHT22;47278;49.732;7.690;2023-03-01T14:16:00;11.20;99.90
61412;DHT22;47278;49.732;7.690;2023-03-01T14:18:31;10.90;99.90
61412;DHT22;47278;49.732;7.690;2023-03-01T14:21:00;11.30;99.90
61412;DHT22;47278;49.732;7.690;2023-03-01T14:23:26;11.10;99.90
61412;DHT22;47278;49.732;7.690;2023-03-01T14:25:53;11.30;99.90
61412;DHT22;47278;49.732;7.690;2023-03-01T14:28:26;11.60;99.90
61412;DHT22;47278;49.732;7.690;2023-03-01T14:30:54;11.40;99.90
61412;DHT22;47278;49.732;7.690;2023-03-01T14:33:30;11.30;99.90
61412;DHT22;47278;49.732;7.690;2023-03-01T14:36:11;11.50;99.90
61412;DHT22;47278;49.732;7.690;2023-03-01T14:38:38;11.60;99.90
61412;DHT22;47278;49.732;7.690;2023-03-01T14:43:30;11.70;99.90
61412;DHT22;47278;49.732;7.690;2023-03-01T14:45:56;11.90;99.90
61412;DHT22;47278;49.732;7.690;2023-03-01T14:48:22;12.30;99.90
61412;DHT22;47278;49.732;7.690;2023-03-01T14:50:48;11.60;99.90
61412;DHT22;47278;49.732;7.690;2023-03-01T14:53:24;14.50;99.90
61412;DHT22;47278;49.732;7.690;2023-03-01T14:55:51;15.70;99.90
61412;DHT22;47278;49.732;7.690;2023-03-01T14:58:24;17.00;98.10
61412;DHT22;47278;49.732;7.690;2023-03-01T15:00:54;17.90;95.70
61412;DHT22;47278;49.732;7.690;2023-03-01T15:03:36;19.00;93.60
61412;DHT22;47278;49.732;7.690;2023-03-01T15:06:05;18.20;92.50
61412;DHT22;47278;49.732;7.690;2023-03-01T15:08:32;17.60;90.90
61412;DHT22;47278;49.732;7.690;2023-03-01T15:10:59;17.90;90.70
61412;DHT22;47278;49.732;7.690;2023-03-01T15:13:26;18.50;91.00
61412;DHT22;47278;49.732;7.690;2023-03-01T15:16:00;18.20;90.00
61412;DHT22;47278;49.732;7.690;2023-03-01T15:18:27;18.30;88.10
61412;DHT22;47278;49.732;7.690;2023-03-01T15:20:53;18.00;85.30
61412;DHT22;47278;49.732;7.690;2023-03-01T15:23:20;18.70;85.60
61412;DHT22;47278;49.732;7.690;2023-03-01T15:25:47;18.10;85.30
61412;DHT22;47278;49.732;7.690;2023-03-01T15:28:28;20.00;86.70
61412;DHT22;47278;49.732;7.690;2023-03-01T15:30:56;17.00;86.20
61412;DHT22;47278;49.732;7.690;2023-03-01T15:36:01;17.60;85.10
61412;DHT22;47278;49.732;7.690;2023-03-01T15:41:04;16.90;86.00
61412;DHT22;47278;49.732;7.690;2023-03-01T15:43:37;16.70;87.40
61412;DHT22;47278;49.732;7.690;2023-03-01T15:46:03;16.40;88.00
61412;DHT22;47278;49.732;7.690;2023-03-01T15:48:29;16.20;87.30
61412;DHT22;47278;49.732;7.690;2023-03-01T15:50:55;19.10;88.40
61412;DHT22;47278;49.732;7.690;2023-03-01T15:53:22;16.70;86.90
61412;DHT22;47278;49.732;7.690;2023-03-01T15:55:48;15.30;87.60
61412;DHT22;47278;49.732;7.690;2023-03-01T15:58:17;15.40;88.70
61412;DHT22;47278;49.732;7.690;2023-03-01T16:00:43;14.70;89.50
61412;DHT22;47278;49.732;7.690;2023-03-01T16:03:11;13.20;91.30
61412;DHT22;47278;49.732;7.690;2023-03-01T16:05:37;13.50;91.60
61412;DHT22;47278;49.732;7.690;2023-03-01T16:08:03;13.70;91.50
61412;DHT22;47278;49.732;7.690;2023-03-01T16:10:29;12.20;92.30
61412;DHT22;47278;49.732;7.690;2023-03-01T16:12:55;12.70;92.30
61412;DHT22;47278;49.732;7.690;2023-03-01T16:15:22;13.10;91.80
61412;DHT22;47278;49.732;7.690;2023-03-01T16:17:47;13.20;91.60
61412;DHT22;47278;49.732;7.690;2023-03-01T16:20:13;12.90;92.10
61412;DHT22;47278;49.732;7.690;2023-03-01T16:22:44;11.30;93.40
61412;DHT22;47278;49.732;7.690;2023-03-01T16:25:10;10.00;95.40
61412;DHT22;47278;49.732;7.690;2023-03-01T16:27:36;9.20;96.50
61412;DHT22;47278;49.732;7.690;2023-03-01T16:30:03;8.80;97.20
61412;DHT22;47278;49.732;7.690;2023-03-01T16:32:29;8.50;98.30
61412;DHT22;47278;49.732;7.690;2023-03-01T16:34:54;7.30;98.10
61412;DHT22;47278;49.732;7.690;2023-03-01T16:37:20;8.10;99.30
61412;DHT22;47278;49.732;7.690;2023-03-01T16:39:47;7.80;99.80
61412;DHT22;47278;49.732;7.690;2023-03-01T16:42:14;7.70;99.90
61412;DHT22;47278;49.732;7.690;2023-03-01T16:44:41;7.60;99.90
61412;DHT22;47278;49.732;7.690;2023-03-01T16:47:07;6.40;99.90
61412;DHT22;47278;49.732;7.690;2023-03-01T16:49:32;7.40;99.90
61412;DHT22;47278;49.732;7.690;2023-03-01T16:51:58;7.40;99.90
61412;DHT22;47278;49.732;7.690;2023-03-01T16:54:24;7.20;99.90
61412;DHT22;47278;49.732;7.690;2023-03-01T16:56:50;7.10;99.90
61412;DHT22;47278;49.732;7.690;2023-03-01T16:59:15;7.00;99.90
61412;DHT22;47278;49.732;7.690;2023-03-01T17:01:43;6.90;99.90
61412;DHT22;47278;49.732;7.690;2023-03-01T17:04:12;6.80;99.90
61412;DHT22;47278;49.732;7.690;2023-03-01T17:06:38;6.70;99.90
61412;DHT22;47278;49.732;7.690;2023-03-01T17:09:03;6.60;99.90
61412;DHT22;47278;49.732;7.690;2023-03-01T17:11:29;6.50;99.90
61412;DHT22;47278;49.732;7.690;2023-03-01T17:13:55;6.30;99.90
61412;DHT22;47278;49.732;7.690;2023-03-01T17:16:21;6.20;99.90
61412;DHT22;47278;49.732;7.690;2023-03-01T17:18:47;5.90;99.90
61412;DHT22;47278;49.732;7.690;2023-03-01T17:21:13;5.60;99.90
61412;DHT22;47278;49.732;7.690;2023-03-01T17:23:39;5.00;99.90
61412;DHT22;47278;49.732;7.690;2023-03-01T17:26:05;4.70;99.90
61412;DHT22;47278;49.732;7.690;2023-03-01T17:28:31;4.60;99.90
61412;DHT22;47278;49.732;7.690;2023-03-01T17:31:01;4.30;99.90
61412;DHT22;47278;49.732;7.690;2023-03-01T17:33:27;4.10;99.90
61412;DHT22;47278;49.732;7.690;2023-03-01T17:35:55;4.00;99.90
61412;DHT22;47278;49.732;7.690;2023-03-01T17:38:20;3.90;99.90
61412;DHT22;47278;49.732;7.690;2023-03-01T17:40:46;4.00;99.90